Fort Chipewyan, Canada
Current Conditions -  °F | °C
As of 1:00 AM on Saturday 22 Nov 2014 (Local Time) from CYPY Reporting Station
Broken Clouds Broken Clouds  
Wind Chill: -10°   Ceiling: 13000
Heat Index:   Visibility: 9mi
Dew Point: -4°   Wind: 5mph
Humidity: 85%   Direction: 70°ENE
Pressure: 29.7"   Gusts: NA
Location:  58.71°N, 111.15°W
Report Text: CYPY 220800Z AUTO 07004KT 9SM BKN130 BKN150 M18/M20 A2970 RMK SLP081
Loading
Personal Weather Stations






























Interactive Weather Map New forecast layout! Learn more

10-Day Weather Forecast

Advertisements
Track Severe Weather on mobile